Time;durP1;ratioP1;P1;durP2;ratioP2;P2;SDS_P1;SDS_P2;PMS_P1;PMS_P2;Temp;Humidity;BMP_temperature;BMP_pressure;BME280_temperature;BME280_humidity;BME280_pressure;Samples;Min_cycle;Max_cycle;Signal;HPM_P1;HPM_P2
2022/01/12 00:00:53;;;;;;;22.07;15.60;;;;;;;-0.26;100.00;97915.53;5068130;27;101980;-59
2022/01/12 00:03:20;;;;;;;20.43;15.00;;;;;;;-0.27;100.00;97920.94;5068067;27;105607;-60
2022/01/12 00:05:48;;;;;;;25.87;15.83;;;;;;;-0.29;100.00;97930.69;5067115;27;105546;-59
2022/01/12 00:08:16;;;;;;;21.73;15.33;;;;;;;-0.25;100.00;97932.06;5067864;27;101957;-59
2022/01/12 00:10:43;;;;;;;22.20;15.30;;;;;;;-0.23;100.00;97929.31;5069717;27;102299;-60
2022/01/12 00:13:11;;;;;;;20.93;15.83;;;;;;;-0.24;100.00;97923.22;5068561;27;102659;-60
2022/01/12 00:15:39;;;;;;;18.80;14.47;;;;;;;-0.21;100.00;97923.75;5067762;27;101988;-60
2022/01/12 00:18:06;;;;;;;22.37;15.23;;;;;;;-0.25;100.00;97926.81;5070818;27;105061;-60
2022/01/12 00:20:34;;;;;;;24.03;16.47;;;;;;;-0.34;100.00;97927.69;5067793;27;101831;-59
2022/01/12 00:23:02;;;;;;;21.67;15.13;;;;;;;-0.24;100.00;97914.59;5067620;27;104915;-59
2022/01/12 00:25:33;;;;;;;21.90;15.20;;;;;;;-0.25;100.00;97918.97;5067310;27;104242;-59
2022/01/12 00:33:37;;;;;;;19.33;14.07;;;;;;;-0.62;100.00;97925.22;5067164;27;105501;-60
2022/01/12 00:36:04;;;;;;;20.80;13.83;;;;;;;-0.49;100.00;97921.31;5070150;27;101911;-59
2022/01/12 00:38:31;;;;;;;26.20;15.43;;;;;;;-0.61;100.00;97930.28;5070785;27;103625;-59
2022/01/12 00:41:00;;;;;;;20.03;13.77;;;;;;;-0.84;100.00;97929.00;5073716;27;105297;-60
2022/01/12 00:43:30;;;;;;;19.80;13.33;;;;;;;-0.91;100.00;97920.09;5070859;27;104905;-59
2022/01/12 00:45:58;;;;;;;21.47;14.40;;;;;;;-0.89;100.00;97928.59;5070284;27;106129;-60
2022/01/12 00:48:25;;;;;;;21.37;15.37;;;;;;;-0.93;100.00;97948.13;5070812;27;101710;-59
2022/01/12 00:50:53;;;;;;;20.13;13.70;;;;;;;-0.95;100.00;97930.94;5072243;27;102286;-60
2022/01/12 00:53:20;;;;;;;21.40;14.07;;;;;;;-1.14;100.00;97942.28;5070302;27;105145;-60
2022/01/12 00:55:47;;;;;;;17.97;12.87;;;;;;;-1.06;100.00;97944.16;5072159;27;101776;-60
2022/01/12 00:58:14;;;;;;;20.50;14.23;;;;;;;-1.00;100.00;97947.06;5070837;27;104082;-60
2022/01/12 01:00:41;;;;;;;21.90;14.33;;;;;;;-0.82;100.00;97940.13;5070208;27;105386;-60
2022/01/12 01:03:10;;;;;;;19.27;13.60;;;;;;;-0.83;100.00;97937.66;5073915;27;102188;-60
2022/01/12 01:05:39;;;;;;;19.17;13.73;;;;;;;-0.70;100.00;97933.78;5070160;27;105570;-60
2022/01/12 01:08:06;;;;;;;20.13;13.83;;;;;;;-0.66;100.00;97942.94;5070668;27;102051;-60
2022/01/12 01:10:45;;;;;;;18.70;12.97;;;;;;;-0.62;100.00;97936.47;5070717;27;104527;-60
2022/01/12 01:13:15;;;;;;;20.23;13.33;;;;;;;-0.66;100.00;97937.72;5069799;27;103796;-59
2022/01/12 01:26:44;;;;;;;17.50;12.47;;;;;;;-0.54;100.00;97947.06;5073468;27;105339;-60
2022/01/12 01:29:13;;;;;;;19.30;12.60;;;;;;;-0.46;100.00;97947.16;5069976;27;102274;-59
2022/01/12 01:31:42;;;;;;;19.47;13.23;;;;;;;-0.77;100.00;97943.13;5071741;27;102035;-60
2022/01/12 01:34:14;;;;;;;19.87;13.60;;;;;;;-0.76;100.00;97949.19;5069482;27;103929;-60
2022/01/12 01:36:44;;;;;;;18.37;12.90;;;;;;;-0.63;100.00;97955.75;5070290;27;102164;-60
2022/01/12 01:39:13;;;;;;;17.37;12.40;;;;;;;-0.69;100.00;97951.09;5069904;27;104055;-60
2022/01/12 01:41:43;;;;;;;19.40;13.53;;;;;;;-0.63;100.00;97942.69;5069440;27;105188;-60
2022/01/12 01:55:09;;;;;;;22.20;14.13;;;;;;;-0.26;100.00;97946.91;5069032;27;104053;-60
2022/01/12 01:57:37;;;;;;;19.20;13.23;;;;;;;-0.28;100.00;97946.22;5069859;27;101973;-60
2022/01/12 02:00:07;;;;;;;21.40;13.73;;;;;;;-0.42;100.00;97946.69;5071304;27;102557;-60
2022/01/12 02:02:40;;;;;;;17.07;12.77;;;;;;;-0.52;100.00;97947.72;5067466;27;102369;-60
2022/01/12 02:05:10;;;;;;;20.43;13.97;;;;;;;-0.50;100.00;97945.78;5069911;27;101951;-60
2022/01/12 02:07:37;;;;;;;18.23;12.33;;;;;;;-0.47;100.00;97942.06;5070880;27;102931;-59
2022/01/12 02:10:07;;;;;;;18.97;13.60;;;;;;;-0.26;100.00;97946.09;5072507;27;105094;-60
2022/01/12 02:12:46;;;;;;;21.63;15.87;;;;;;;-0.37;100.00;97946.28;5069509;27;105016;-59
2022/01/12 02:15:17;;;;;;;20.43;13.80;;;;;;;-0.41;100.00;97944.94;5068769;27;105498;-59
2022/01/12 02:18:00;;;;;;;20.20;14.07;;;;;;;-0.37;100.00;97946.28;5069408;27;101876;-60
2022/01/12 02:37:01;;;;;;;26.80;15.50;;;;;;;-0.15;100.00;97931.00;5068681;27;104058;-60
2022/01/12 02:39:51;;;;;;;22.37;15.00;;;;;;;-0.20;100.00;97929.81;5068992;27;101998;-60
2022/01/12 02:42:19;;;;;;;23.03;15.67;;;;;;;-0.22;100.00;97932.56;5069141;27;105152;-60
2022/01/12 02:50:44;;;;;;;28.90;18.70;;;;;;;-0.11;100.00;97931.53;5069094;27;105634;-59
2022/01/12 02:55:58;;;;;;;27.97;18.00;;;;;;;-0.14;100.00;97931.84;5068882;27;101884;-59
2022/01/12 02:58:27;;;;;;;29.07;18.63;;;;;;;-0.14;100.00;97937.06;5071447;27;104882;-60
2022/01/12 03:01:14;;;;;;;30.97;19.50;;;;;;;-0.14;100.00;97934.47;5068771;27;101904;-59
2022/01/12 03:03:43;;;;;;;28.57;18.43;;;;;;;-0.18;100.00;97933.09;5068607;27;105670;-60
2022/01/12 03:06:15;;;;;;;30.30;18.40;;;;;;;-0.11;100.00;97936.78;5068241;27;104975;-60
2022/01/12 03:08:43;;;;;;;32.43;19.90;;;;;;;-0.04;100.00;97948.31;5068713;27;102002;-60
2022/01/12 03:11:14;;;;;;;35.23;21.00;;;;;;;0.02;100.00;97942.50;5068809;27;104771;-59
2022/01/12 03:13:41;;;;;;;33.00;20.40;;;;;;;-0.07;100.00;97946.81;5068153;27;105560;-60
2022/01/12 03:16:14;;;;;;;33.90;21.23;;;;;;;-0.23;100.00;97948.41;5068606;27;102081;-60
2022/01/12 03:18:41;;;;;;;34.93;21.43;;;;;;;-0.41;100.00;97939.69;5068417;27;104804;-60
2022/01/12 03:21:09;;;;;;;33.47;20.27;;;;;;;-0.44;100.00;97931.34;5071448;27;105620;-60
2022/01/12 03:23:37;;;;;;;29.27;19.50;;;;;;;-0.39;100.00;97936.94;5068605;27;103663;-59
2022/01/12 03:26:04;;;;;;;32.70;20.17;;;;;;;-0.45;100.00;97932.31;5067997;27;105127;-59
2022/01/12 03:28:34;;;;;;;30.73;20.47;;;;;;;-0.57;100.00;97942.09;5068299;27;102065;-60
2022/01/12 03:31:08;;;;;;;32.37;21.03;;;;;;;-0.56;100.00;97941.13;5067998;27;105240;-60
2022/01/12 03:33:52;;;;;;;29.23;19.60;;;;;;;-0.55;100.00;97940.16;5067938;27;105034;-59
2022/01/12 03:36:28;;;;;;;31.63;19.47;;;;;;;-0.40;100.00;97936.13;5068290;27;101788;-59
2022/01/12 03:38:59;;;;;;;30.57;19.67;;;;;;;-0.42;100.00;97938.06;5068070;27;104803;-60
2022/01/12 03:41:27;;;;;;;29.30;19.80;;;;;;;-0.48;100.00;97938.63;5067706;27;105492;-60
2022/01/12 03:43:59;;;;;;;30.33;19.43;;;;;;;-0.50;100.00;97932.72;5071350;27;101944;-60
2022/01/12 03:46:29;;;;;;;29.70;19.43;;;;;;;-0.47;100.00;97940.28;5067830;27;105635;-59
2022/01/12 03:48:56;;;;;;;28.30;19.50;;;;;;;-0.49;100.00;97944.84;5068425;27;102365;-60
2022/01/12 03:51:23;;;;;;;27.53;18.20;;;;;;;-0.49;100.00;97944.84;5068208;27;104889;-60
2022/01/12 03:53:51;;;;;;;29.73;19.23;;;;;;;-0.68;100.00;97951.91;5067631;27;105164;-59
2022/01/12 03:56:18;;;;;;;31.27;20.30;;;;;;;-0.73;100.00;97952.34;5067901;27;101857;-59
2022/01/12 03:58:45;;;;;;;25.97;17.63;;;;;;;-0.84;100.00;97962.94;5067911;27;105009;-60
2022/01/12 04:01:14;;;;;;;29.60;19.17;;;;;;;-0.78;100.00;97959.78;5067393;27;105049;-59
2022/01/12 04:03:45;;;;;;;33.57;21.20;;;;;;;-0.96;100.00;97966.69;5071474;27;102336;-59
2022/01/12 04:08:56;;;;;;;31.57;20.17;;;;;;;-1.34;100.00;97978.97;5068081;27;101966;-60
2022/01/12 04:11:24;;;;;;;32.80;21.03;;;;;;;-1.23;100.00;97977.03;5072388;27;102240;-59
2022/01/12 04:13:52;;;;;;;31.07;19.80;;;;;;;-1.16;100.00;97972.09;5070813;27;105364;-60
2022/01/12 04:16:20;;;;;;;33.37;20.70;;;;;;;-1.25;100.00;97970.31;5071046;27;101922;-60
2022/01/12 04:18:47;;;;;;;36.10;21.17;;;;;;;-1.31;100.00;97969.06;5072815;27;102287;-60
2022/01/12 04:21:14;;;;;;;35.13;21.50;;;;;;;-1.18;100.00;97979.22;5070942;27;105219;-60
2022/01/12 04:23:42;;;;;;;34.97;21.53;;;;;;;-1.10;100.00;97977.56;5071325;27;102216;-60
2022/01/12 04:26:13;;;;;;;35.90;20.63;;;;;;;-0.97;100.00;97972.06;5073899;27;103689;-60
2022/01/12 04:28:42;;;;;;;33.97;20.93;;;;;;;-0.80;100.00;97979.16;5071224;27;101929;-59
2022/01/12 04:31:11;;;;;;;34.30;21.20;;;;;;;-0.80;100.00;97974.78;5070893;27;104805;-60
2022/01/12 04:33:41;;;;;;;31.77;21.07;;;;;;;-0.79;100.00;97973.81;5070729;27;105885;-59
2022/01/12 04:36:10;;;;;;;34.50;20.70;;;;;;;-0.72;100.00;97977.47;5071049;27;101885;-59
2022/01/12 04:38:39;;;;;;;34.90;21.03;;;;;;;-0.68;100.00;97981.47;5070531;27;104982;-59
2022/01/12 04:41:08;;;;;;;35.50;22.13;;;;;;;-0.65;100.00;97990.81;5070413;27;105107;-59
2022/01/12 04:43:39;;;;;;;36.97;21.53;;;;;;;-0.82;100.00;97991.53;5070879;27;102032;-60
2022/01/12 04:46:23;;;;;;;36.20;21.43;;;;;;;-0.87;100.00;97997.19;5071022;27;105343;-60
2022/01/12 04:49:06;;;;;;;34.17;21.27;;;;;;;-0.86;100.00;98001.44;5073995;27;104011;-59
2022/01/12 04:51:34;;;;;;;32.13;20.60;;;;;;;-0.86;100.00;98003.22;5070818;27;105669;-59
2022/01/12 04:54:01;;;;;;;34.10;20.90;;;;;;;-0.80;100.00;98013.09;5070229;27;105191;-59
2022/01/12 04:56:30;;;;;;;34.73;20.97;;;;;;;-0.73;100.00;98007.19;5070599;27;101924;-60
2022/01/12 04:58:57;;;;;;;33.87;19.93;;;;;;;-0.67;100.00;98006.63;5070820;27;104854;-59
2022/01/12 05:01:27;;;;;;;35.33;21.40;;;;;;;-0.72;100.00;98015.84;5069888;27;105497;-60
2022/01/12 05:06:57;;;;;;;34.83;21.00;;;;;;;-0.74;100.00;98015.16;5070626;27;104949;-59
2022/01/12 05:15:15;;;;;;;32.63;20.83;;;;;;;-0.90;100.00;98030.56;5047579;27;105701;-60
2022/01/12 05:17:43;;;;;;;35.93;20.87;;;;;;;-0.92;100.00;98033.34;5048187;27;101838;-60
2022/01/12 05:20:10;;;;;;;33.87;21.97;;;;;;;-1.01;100.00;98034.16;5048168;27;104894;-60
2022/01/12 05:22:37;;;;;;;35.33;21.23;;;;;;;-1.01;100.00;98036.78;5047087;27;105707;-60
2022/01/12 05:25:06;;;;;;;34.67;20.70;;;;;;;-1.00;100.00;98030.59;5048132;27;102489;-60
2022/01/12 05:27:34;;;;;;;34.20;20.97;;;;;;;-0.98;100.00;98020.84;5048040;27;104790;-60
2022/01/12 05:30:02;;;;;;;37.73;21.27;;;;;;;-0.80;100.00;98021.78;5047424;27;105343;-59
2022/01/12 05:32:29;;;;;;;34.43;21.10;;;;;;;-0.62;100.00;98024.50;5051212;27;101948;-60
2022/01/12 05:35:02;;;;;;;34.30;21.33;;;;;;;-0.70;100.00;98019.97;5047640;27;104883;-60
2022/01/12 05:37:36;;;;;;;39.00;23.13;;;;;;;-0.76;100.00;98007.47;5048195;27;102055;-60
2022/01/12 05:40:05;;;;;;;31.90;19.87;;;;;;;-1.01;100.00;98020.28;5048230;27;105258;-60
2022/01/12 05:42:38;;;;;;;34.83;21.83;;;;;;;-1.18;100.00;98028.81;5047553;27;105522;-60
2022/01/12 05:45:08;;;;;;;30.43;19.50;;;;;;;-1.32;100.00;98040.50;5047881;27;101881;-60
2022/01/12 05:49:34;;;;;;;33.00;19.63;;;;;;;-1.29;100.00;98042.84;5047915;27;105050;-60
2022/01/12 05:50:33;;;;;;;39.13;21.53;;;;;;;-1.35;100.00;98053.00;5046774;27;103803;-60
2022/01/12 05:53:07;;;;;;;51.50;27.33;;;;;;;-1.35;100.00;98051.22;5047994;27;101788;-60
2022/01/12 05:55:34;;;;;;;48.37;25.37;;;;;;;-1.25;100.00;98046.00;5050301;27;104966;-59
2022/01/12 05:58:07;;;;;;;45.07;24.47;;;;;;;-1.24;100.00;98045.88;5047788;27;101871;-59
2022/01/12 06:00:35;;;;;;;56.17;29.47;;;;;;;-1.39;100.00;98055.06;5047704;27;105133;-59
2022/01/12 06:03:04;;;;;;;31.43;19.57;;;;;;;-1.46;100.00;98055.72;5047192;27;105652;-59
2022/01/12 06:05:31;;;;;;;33.20;20.53;;;;;;;-1.55;100.00;98062.56;5047634;27;101941;-60
2022/01/12 06:08:17;;;;;;;34.47;19.47;;;;;;;-1.62;100.00;98071.91;5047705;27;103789;-60
2022/01/12 06:10:44;;;;;;;32.20;17.57;;;;;;;-1.63;100.00;98067.66;5046585;27;105028;-60
2022/01/12 06:13:13;;;;;;;34.03;19.73;;;;;;;-1.50;100.00;98078.66;5047555;27;101954;-60
2022/01/12 06:15:40;;;;;;;32.00;18.87;;;;;;;-1.64;100.00;98086.84;5046862;27;105103;-60
2022/01/12 06:18:07;;;;;;;36.93;20.33;;;;;;;-1.63;100.00;98096.34;5048484;27;105570;-60
2022/01/12 06:20:34;;;;;;;260.40;95.03;;;;;;;-1.69;100.00;98098.66;5046915;27;104958;-60
2022/01/12 06:23:23;;;;;;;57.07;27.27;;;;;;;-1.78;100.00;98096.81;5034225;27;105148;-60
2022/01/12 06:25:57;;;;;;;43.20;23.17;;;;;;;-1.84;100.00;98095.59;5029331;27;102040;-60
2022/01/12 06:28:40;;;;;;;126.63;52.47;;;;;;;-1.86;100.00;98097.47;5030836;27;105183;-60
2022/01/12 06:31:13;;;;;;;54.40;26.77;;;;;;;-1.84;100.00;98090.38;5031842;27;105806;-60
2022/01/12 06:33:43;;;;;;;30.07;18.10;;;;;;;-2.00;100.00;98089.22;5032676;27;103188;-59
2022/01/12 06:36:12;;;;;;;37.70;23.97;;;;;;;-1.92;100.00;98092.81;5032212;27;105120;-59
2022/01/12 06:38:39;;;;;;;27.40;17.23;;;;;;;-2.10;100.00;98089.19;5047775;27;105384;-60
2022/01/12 06:41:06;;;;;;;31.87;19.33;;;;;;;-2.32;100.00;98084.13;5032255;27;102354;-60
2022/01/12 06:43:35;;;;;;;29.80;18.73;;;;;;;-2.39;100.00;98088.22;5011624;28;105119;-60
2022/01/12 06:46:03;;;;;;;29.60;18.07;;;;;;;-2.48;100.00;98088.16;5019144;27;102040;-59
2022/01/12 06:48:31;;;;;;;30.43;18.20;;;;;;;-2.46;100.00;98100.09;5033087;27;105136;-60
2022/01/12 06:50:58;;;;;;;35.07;18.30;;;;;;;-2.49;100.00;98097.75;5032035;27;105654;-60
2022/01/12 06:53:25;;;;;;;32.23;17.73;;;;;;;-2.52;100.00;98108.41;5032389;27;102008;-59
2022/01/12 06:55:54;;;;;;;30.13;18.53;;;;;;;-2.44;100.00;98116.44;5032948;27;105286;-60
2022/01/12 06:58:21;;;;;;;32.07;18.80;;;;;;;-2.52;100.00;98118.03;5050884;27;102811;-59
2022/01/12 07:00:51;;;;;;;31.30;17.37;;;;;;;-2.34;100.00;98127.75;5032156;27;101911;-60
2022/01/12 07:03:20;;;;;;;32.27;17.97;;;;;;;-2.32;100.00;98128.44;5035712;27;104849;-60
2022/01/12 07:05:54;;;;;;;35.27;18.67;;;;;;;-2.20;100.00;98129.19;5032953;27;101680;-60
2022/01/12 07:08:22;;;;;;;33.53;18.70;;;;;;;-2.23;100.00;98135.47;5032847;27;105151;-59
2022/01/12 07:10:51;;;;;;;33.73;18.90;;;;;;;-2.46;100.00;98148.78;5048825;27;105014;-60
2022/01/12 07:13:22;;;;;;;31.70;18.93;;;;;;;-2.36;100.00;98155.69;5032134;27;102474;-60
2022/01/12 07:15:51;;;;;;;31.50;18.27;;;;;;;-2.25;100.00;98157.41;5032096;27;105295;-60
2022/01/12 07:18:21;;;;;;;33.63;19.80;;;;;;;-2.19;100.00;98157.69;5031950;27;104885;-60
2022/01/12 07:20:49;;;;;;;24.63;14.60;;;;;;;-2.27;100.00;98170.56;5032543;27;102034;-59
2022/01/12 07:23:16;;;;;;;18.20;11.77;;;;;;;-2.45;100.00;98177.31;5032402;27;103739;-59
2022/01/12 07:25:43;;;;;;;17.30;11.53;;;;;;;-2.43;100.00;98183.19;5035287;27;101980;-59
2022/01/12 07:28:10;;;;;;;17.73;11.80;;;;;;;-2.43;100.00;98183.19;5032424;27;104841;-59
2022/01/12 07:30:37;;;;;;;22.50;12.53;;;;;;;-2.48;100.00;98189.72;5032114;27;105266;-58
2022/01/12 07:33:06;;;;;;;23.13;13.47;;;;;;;-2.31;100.00;98190.00;5050120;27;101818;-59
2022/01/12 07:35:33;;;;;;;21.97;13.60;;;;;;;-2.41;100.00;98199.50;5031150;27;105829;-59
2022/01/12 07:38:00;;;;;;;30.90;18.27;;;;;;;-2.32;100.00;98203.13;5031673;27;105937;-59
2022/01/12 07:40:28;;;;;;;49.30;22.73;;;;;;;-2.56;100.00;98200.78;5030184;27;101906;-59
2022/01/12 07:42:55;;;;;;;74.97;41.63;;;;;;;-2.77;100.00;98201.69;5047277;27;103697;-59
2022/01/12 07:45:23;;;;;;;36.47;22.57;;;;;;;-2.64;100.00;98200.59;5035126;27;105858;-59
2022/01/12 07:47:50;;;;;;;12.23;8.60;;;;;;;-2.69;100.00;98197.53;5050930;27;102369;-59
2022/01/12 07:50:19;;;;;;;25.10;15.13;;;;;;;-3.04;100.00;98196.94;5032786;27;103915;-59
2022/01/12 07:52:46;;;;;;;16.43;11.53;;;;;;;-2.92;100.00;98197.72;5049910;27;102259;-59
2022/01/12 07:55:13;;;;;;;13.87;8.60;;;;;;;-2.88;100.00;98199.13;5050903;27;102330;-58
2022/01/12 07:57:43;;;;;;;8.27;6.43;;;;;;;-2.94;100.00;98203.06;5050548;27;102549;-59
2022/01/12 08:00:10;;;;;;;9.20;6.70;;;;;;;-2.92;100.00;98197.72;5051621;27;101721;-59
2022/01/12 08:02:40;;;;;;;14.27;9.80;;;;;;;-2.82;100.00;98212.50;5051191;27;104422;-59
2022/01/12 08:05:08;;;;;;;8.00;6.07;;;;;;;-2.76;100.00;98212.00;5050849;27;102659;-59
2022/01/12 08:07:43;;;;;;;10.87;7.50;;;;;;;-2.53;100.00;98202.28;5054791;27;101953;-59
2022/01/12 08:10:11;;;;;;;11.40;8.17;;;;;;;-2.50;100.00;98204.66;5040380;27;102550;-59
2022/01/12 08:12:47;;;;;;;10.93;7.43;;;;;;;-2.57;100.00;98206.94;5033133;27;101832;-58
2022/01/12 08:15:15;;;;;;;10.73;6.93;;;;;;;-2.73;100.00;98214.34;5032329;27;105639;-60
2022/01/12 08:17:45;;;;;;;13.83;7.67;;;;;;;-2.51;100.00;98222.06;5029008;28;105025;-60
2022/01/12 08:20:17;;;;;;;11.87;7.27;;;;;;;-2.47;100.00;98226.06;5047551;27;101785;-61
2022/01/12 08:22:45;;;;;;;12.03;7.77;;;;;;;-2.32;100.00;98232.63;5051548;27;102868;-61
2022/01/12 08:25:12;;;;;;;11.83;7.17;;;;;;;-2.51;100.00;98240.28;5028740;28;105062;-61
2022/01/12 08:28:27;;;;;;;11.73;6.93;;;;;;;-2.49;100.00;98237.56;5028932;27;101878;-61
2022/01/12 08:30:54;;;;;;;12.93;8.07;;;;;;;-2.78;100.00;98246.91;5035893;27;104792;-64
2022/01/12 08:33:21;;;;;;;10.63;8.27;;;;;;;-2.72;100.00;98251.63;5029012;28;102082;-60
2022/01/12 08:35:49;;;;;;;10.90;7.47;;;;;;;-2.67;100.00;98250.28;5015185;27;104006;-60
2022/01/12 08:38:24;;;;;;;20.23;12.23;;;;;;;-2.72;100.00;98256.84;5028563;28;105374;-60
2022/01/12 08:40:54;;;;;;;15.73;10.60;;;;;;;-2.56;100.00;98247.69;5031810;27;102074;-60
2022/01/12 08:43:21;;;;;;;22.97;15.20;;;;;;;-2.51;100.00;98245.50;5031835;27;105631;-60
2022/01/12 08:45:47;;;;;;;21.70;13.47;;;;;;;-2.27;100.00;98253.94;5029266;27;105649;-60
2022/01/12 08:48:21;;;;;;;19.00;11.93;;;;;;;-1.79;100.00;98249.88;5031437;27;101876;-60
2022/01/12 08:50:49;;;;;;;18.23;11.93;;;;;;;-1.52;100.00;98231.03;5031490;27;105194;-60
2022/01/12 08:53:16;;;;;;;16.93;12.23;;;;;;;-1.65;100.00;98227.84;5033884;27;105811;-60
2022/01/12 08:55:44;;;;;;;18.83;11.37;;;;;;;-1.66;100.00;98234.81;5031437;27;105293;-60
2022/01/12 08:58:45;;;;;;;8.97;6.40;;;;;;;-2.01;100.00;98234.38;5031123;27;106085;-60
2022/01/12 09:01:12;;;;;;;6.33;5.10;;;;;;;-1.87;100.00;98228.00;5032340;27;101948;-60
2022/01/12 09:03:39;;;;;;;7.00;5.50;;;;;;;-1.97;100.00;98240.16;5032339;27;105045;-60
2022/01/12 09:06:07;;;;;;;6.07;4.60;;;;;;;-1.77;100.00;98234.91;5031503;27;105374;-60
2022/01/12 09:09:27;;;;;;;6.27;4.70;;;;;;;-1.37;100.00;98243.59;5032452;27;101848;-60
2022/01/12 09:11:56;;;;;;;6.47;4.43;;;;;;;-1.14;100.00;98242.47;5028330;28;105822;-58
2022/01/12 09:14:24;;;;;;;6.33;4.93;;;;;;;-0.71;100.00;98240.34;5011330;28;104264;-60
2022/01/12 09:16:55;;;;;;;6.70;5.40;;;;;;;-0.64;100.00;98245.84;5044318;27;101833;-59
2022/01/12 09:19:34;;;;;;;7.30;5.27;;;;;;;-0.69;100.00;98248.88;5031727;27;105541;-60
2022/01/12 09:22:01;;;;;;;6.33;5.17;;;;;;;-0.65;100.00;98247.66;5028886;28;102081;-59
2022/01/12 09:24:28;;;;;;;7.83;6.00;;;;;;;-1.14;100.00;98250.28;5012117;28;105090;-59
2022/01/12 09:26:57;;;;;;;8.63;6.53;;;;;;;-0.90;100.00;98250.75;5029948;27;105294;-59
2022/01/12 09:29:31;;;;;;;8.10;5.73;;;;;;;-0.75;100.00;98248.59;5032183;27;101856;-59
2022/01/12 09:31:59;;;;;;;8.47;6.07;;;;;;;-0.74;100.00;98247.63;5031839;27;104258;-59
2022/01/12 09:34:25;;;;;;;10.60;7.10;;;;;;;-0.56;100.00;98251.25;5027980;28;105126;-59
2022/01/12 09:36:53;;;;;;;12.47;9.17;;;;;;;-0.40;100.00;98239.25;5064234;27;102012;-60
2022/01/12 09:40:03;;;;;;;14.97;10.00;;;;;;;-0.45;100.00;98240.66;5030868;27;106552;-59
2022/01/12 09:43:11;;;;;;;12.63;9.37;;;;;;;-0.09;100.00;98232.94;5031002;27;101979;-60
2022/01/12 09:45:43;;;;;;;13.07;9.07;;;;;;;0.21;100.00;98230.09;5031790;27;103976;-59
2022/01/12 09:48:13;;;;;;;13.30;8.70;;;;;;;0.10;100.00;98238.94;5031294;27;105826;-60
2022/01/12 09:50:40;;;;;;;15.07;9.90;;;;;;;0.29;100.00;98232.84;5031737;27;101837;-60
2022/01/12 09:53:07;;;;;;;14.00;9.67;;;;;;;0.63;100.00;98240.03;5031751;27;105321;-60
2022/01/12 09:55:34;;;;;;;16.57;10.80;;;;;;;0.73;100.00;98235.56;5027687;28;105307;-60
2022/01/12 09:58:07;;;;;;;15.80;10.63;;;;;;;0.29;100.00;98235.47;5029053;27;102108;-60
2022/01/12 10:00:35;;;;;;;12.63;9.63;;;;;;;0.16;100.00;98237.53;5017028;28;105594;-60
2022/01/12 10:03:11;;;;;;;14.90;10.30;;;;;;;0.14;100.00;98229.03;5014982;28;101854;-60
2022/01/12 10:05:38;;;;;;;15.13;10.97;;;;;;;0.18;100.00;98236.44;5032421;28;102463;-60
2022/01/12 10:08:19;;;;;;;15.23;11.07;;;;;;;0.38;100.00;98234.59;5031632;28;103023;-60
2022/01/12 10:11:03;;;;;;;15.13;11.10;;;;;;;0.47;100.00;98231.13;5003447;28;102002;-60
2022/01/12 10:13:33;;;;;;;14.97;10.93;;;;;;;0.42;100.00;98226.34;4990275;28;105197;-60
2022/01/12 10:16:12;;;;;;;17.63;11.60;;;;;;;0.66;100.00;98216.19;4989896;28;105401;-60
2022/01/12 10:18:53;;;;;;;19.30;12.40;;;;;;;0.95;100.00;98205.56;4990580;28;102314;-61
2022/01/12 10:21:30;;;;;;;19.80;12.97;;;;;;;1.17;100.00;98197.28;4997330;28;105524;-60
2022/01/12 10:24:00;;;;;;;20.73;12.47;;;;;;;1.22;100.00;98192.44;4993494;28;105189;-60
2022/01/12 10:26:37;;;;;;;23.77;12.77;;;;;;;1.01;100.00;98200.56;4990559;28;105011;-60
2022/01/12 10:29:31;;;;;;;20.27;13.57;;;;;;;0.85;100.00;98189.91;4997405;28;105849;-60
2022/01/12 10:32:01;;;;;;;25.67;14.53;;;;;;;0.59;100.00;98185.47;4990413;28;101991;-60
2022/01/12 10:34:31;;;;;;;17.83;12.57;;;;;;;0.81;100.00;98187.72;4991987;28;105271;-61
2022/01/12 10:36:58;;;;;;;19.13;12.20;;;;;;;0.65;100.00;98188.34;4998356;28;105902;-59
2022/01/12 10:40:02;;;;;;;16.53;11.53;;;;;;;0.60;100.00;98203.66;4990254;28;101885;-59
2022/01/12 10:42:52;;;;;;;17.07;11.87;;;;;;;0.65;100.00;98190.13;5008660;28;105664;-60
2022/01/12 10:45:19;;;;;;;15.47;10.77;;;;;;;0.64;100.00;98191.09;5009702;28;105294;-60
2022/01/12 10:48:01;;;;;;;13.50;10.57;;;;;;;0.79;100.00;98195.75;5013452;28;102228;-60
2022/01/12 10:50:30;;;;;;;16.57;11.57;;;;;;;0.86;100.00;98194.19;4999671;28;105311;-61
2022/01/12 10:52:57;;;;;;;16.30;11.87;;;;;;;0.24;100.00;98191.41;4995457;28;101934;-58
2022/01/12 10:55:24;;;;;;;16.07;11.57;;;;;;;0.41;100.00;98195.91;5011320;28;102361;-60
2022/01/12 10:57:54;;;;;;;15.90;11.13;;;;;;;0.04;100.00;98195.06;5009335;28;105804;-60
2022/01/12 11:00:24;;;;;;;16.83;11.97;;;;;;;-0.34;100.00;98194.28;5009940;28;101984;-60
2022/01/12 11:02:54;;;;;;;14.73;11.30;;;;;;;-0.18;100.00;98201.56;5011273;28;102370;-60
2022/01/12 11:05:22;;;;;;;15.87;11.50;;;;;;;0.31;100.00;98189.88;5009178;28;105044;-60
2022/01/12 11:07:55;;;;;;;15.10;10.83;;;;;;;0.84;100.00;98182.19;5011085;28;101792;-60
2022/01/12 11:10:23;;;;;;;15.63;11.00;;;;;;;0.94;100.00;98178.53;5008944;28;105481;-60
2022/01/12 11:12:51;;;;;;;13.93;9.40;;;;;;;1.18;100.00;98175.34;4989746;28;102010;-60
2022/01/12 11:15:20;;;;;;;13.53;10.17;;;;;;;0.87;100.00;98187.97;4995038;28;106474;-60
2022/01/12 11:18:17;;;;;;;14.00;10.90;;;;;;;0.85;100.00;98179.44;5009098;28;105945;-60
2022/01/12 11:20:47;;;;;;;12.77;9.33;;;;;;;1.08;100.00;98171.97;5009500;28;101855;-60
2022/01/12 11:23:18;;;;;;;14.47;10.63;;;;;;;1.49;100.00;98184.50;5010475;28;105398;-61
2022/01/12 11:25:47;;;;;;;14.43;10.53;;;;;;;1.77;100.00;98178.19;5008794;28;105211;-61
2022/01/12 11:28:39;;;;;;;15.40;10.33;;;;;;;1.79;100.00;98174.44;5008885;28;102001;-61
2022/01/12 11:31:08;;;;;;;14.93;10.40;;;;;;;1.96;100.00;98151.75;5009601;28;104794;-61
2022/01/12 11:33:43;;;;;;;17.50;12.13;;;;;;;2.40;100.00;98143.66;5013442;28;103148;-61
2022/01/12 11:36:15;;;;;;;18.97;13.30;;;;;;;2.78;100.00;98155.50;5005869;28;105397;-62
2022/01/12 11:38:47;;;;;;;13.90;10.80;;;;;;;3.04;100.00;98154.41;5006177;28;105864;-62
2022/01/12 11:41:32;;;;;;;16.40;12.07;;;;;;;2.60;100.00;98160.00;5010950;28;101936;-62
2022/01/12 11:44:04;;;;;;;18.67;12.17;;;;;;;2.84;100.00;98170.59;5009268;28;105453;-62
2022/01/12 11:46:44;;;;;;;18.40;13.20;;;;;;;2.62;100.00;98177.25;5008698;28;105613;-62
2022/01/12 11:49:52;;;;;;;17.90;12.97;;;;;;;2.52;100.00;98180.97;5009393;28;101781;-62
2022/01/12 11:52:22;;;;;;;19.63;13.37;;;;;;;2.64;100.00;98172.66;5008984;28;105685;-62
2022/01/12 11:54:53;;;;;;;17.67;13.07;;;;;;;2.58;100.00;98178.53;5011824;28;105581;-62
2022/01/12 11:57:34;;;;;;;19.17;14.30;;;;;;;2.46;100.00;98184.22;4989038;28;105011;-62
2022/01/12 12:00:09;;;;;;;17.27;12.47;;;;;;;2.52;100.00;98189.66;5002523;28;103069;-62
2022/01/12 12:02:43;;;;;;;15.63;11.07;;;;;;;2.20;100.00;98186.03;5009138;28;101778;-62
2022/01/12 12:05:13;;;;;;;18.00;12.07;;;;;;;2.12;100.00;98183.34;5008949;28;105702;-62
2022/01/12 12:11:10;;;;;;;16.23;11.20;;;;;;;1.98;100.00;98182.09;5008202;28;101878;-62
2022/01/12 12:13:42;;;;;;;15.50;11.57;;;;;;;2.68;100.00;98186.31;5007410;28;105174;-61
2022/01/12 12:16:08;;;;;;;15.10;11.07;;;;;;;3.37;100.00;98176.31;5008227;28;105320;-60
2022/01/12 12:18:40;;;;;;;15.53;10.97;;;;;;;3.18;100.00;98174.00;5012055;28;101893;-61
2022/01/12 12:21:08;;;;;;;14.20;10.93;;;;;;;3.41;100.00;98175.84;5003868;28;105502;-63
2022/01/12 12:23:37;;;;;;;18.57;11.03;;;;;;;3.32;100.00;98175.97;4988666;28;102074;-63
2022/01/12 12:26:12;;;;;;;14.57;10.27;;;;;;;3.11;100.00;98173.00;4988376;28;104381;-63
2022/01/12 12:28:53;;;;;;;12.53;10.00;;;;;;;2.88;100.00;98171.91;4988048;28;105193;-63
2022/01/12 12:31:24;;;;;;;12.40;9.67;;;;;;;3.32;100.00;98165.44;5005135;28;101773;-63